16°C Temp
11°C Dewpoint
72% Humidity
Temperature
16 KM/H
10 MPH
9 KTS
280°
Due West

Wind Speed
Mostly Scattered
Clouds
Pressure 1023.92 (hPa) - 30.24 (in)
Visibility 6.2 (mi) - 10.0 (km)

Current Conditions
EKCH
Location 55(km)
Metar :EKCH 221020Z 28009KT 240V300 9999 SCT027 16/11 Q1024 NOSIG
Wed 22nd September 12:20 pm

Airport
  Metar Aviation API Data Provided by https://www.checkwx.com/ PHP scripts by weather34.com ©2021